Time;durP1;ratioP1;P1;durP2;ratioP2;P2;SDS_P1;SDS_P2;PMS_P1;PMS_P2;Temp;Humidity;BMP_temperature;BMP_pressure;BME280_temperature;BME280_humidity;BME280_pressure;Samples;Min_cycle;Max_cycle;Signal;HPM_P1;HPM_P2
2023/05/28 00:02:15;;;;;;;8.67;4.07;;;;;;;13.94;50.14;95783.47;6280687;22;20199;-81
2023/05/28 00:04:40;;;;;;;13.83;4.30;;;;;;;13.96;49.96;95785.94;6281651;22;20184;-81
2023/05/28 00:07:06;;;;;;;6.80;3.73;;;;;;;13.94;50.81;95780.88;6280811;22;20152;-81
2023/05/28 00:09:32;;;;;;;8.40;3.97;;;;;;;13.91;50.61;95780.41;6255586;22;20613;-80
2023/05/28 00:11:57;;;;;;;7.90;4.17;;;;;;;13.89;50.66;95780.56;6280053;22;20251;-81
2023/05/28 00:14:22;;;;;;;6.97;4.47;;;;;;;13.80;51.21;95778.94;6280944;22;20148;-81
2023/05/28 00:16:50;;;;;;;8.40;4.83;;;;;;;13.84;50.64;95778.44;6280199;22;20593;-81
2023/05/28 00:19:16;;;;;;;7.70;3.80;;;;;;;13.81;50.61;95778.75;6250380;22;20563;-80
2023/05/28 00:21:41;;;;;;;9.67;4.23;;;;;;;13.81;50.80;95775.34;6249649;22;20215;-81
2023/05/28 00:24:07;;;;;;;10.10;4.13;;;;;;;13.79;50.55;95780.72;6275851;22;20180;-80
2023/05/28 00:26:32;;;;;;;12.17;4.40;;;;;;;13.84;50.13;95775.00;6248218;22;20167;-81
2023/05/28 00:28:57;;;;;;;6.73;4.13;;;;;;;13.83;49.93;95766.34;6250541;22;20856;-81
2023/05/28 00:31:23;;;;;;;8.57;4.57;;;;;;;13.89;49.89;95767.50;6275248;22;20176;-80
2023/05/28 00:33:48;;;;;;;7.90;4.03;;;;;;;13.84;49.60;95765.38;6276241;22;20656;-81
2023/05/28 00:36:13;;;;;;;7.90;4.43;;;;;;;13.98;49.04;95768.34;6248693;22;20598;-81
2023/05/28 00:38:39;;;;;;;7.33;4.10;;;;;;;14.07;48.50;95764.75;6275280;22;20464;-80
2023/05/28 00:41:04;;;;;;;8.10;4.40;;;;;;;14.12;48.26;95767.66;6275481;22;20164;-81
2023/05/28 00:43:31;;;;;;;8.47;4.80;;;;;;;14.10;48.31;95767.00;6250096;22;20230;-81
2023/05/28 00:46:00;;;;;;;7.93;4.53;;;;;;;14.15;48.26;95765.56;6249321;22;20594;-80
2023/05/28 00:48:26;;;;;;;9.33;4.03;;;;;;;14.16;48.02;95763.75;6250097;22;20161;-81
2023/05/28 00:50:52;;;;;;;6.53;4.00;;;;;;;14.06;48.39;95758.69;6250085;22;20159;-81
2023/05/28 00:53:17;;;;;;;10.57;4.30;;;;;;;14.02;48.51;95761.78;6275965;22;20169;-81
2023/05/28 00:55:43;;;;;;;9.77;4.77;;;;;;;14.02;48.37;95756.56;6275514;22;20547;-82
2023/05/28 00:58:09;;;;;;;8.77;4.40;;;;;;;14.00;48.21;95758.53;6249194;22;20157;-80
2023/05/28 01:00:35;;;;;;;10.67;4.67;;;;;;;13.92;48.33;95754.13;6276229;22;20152;-81
2023/05/28 01:03:01;;;;;;;7.33;4.30;;;;;;;13.99;48.24;95757.72;6274671;22;20182;-81
2023/05/28 01:05:26;;;;;;;9.90;4.10;;;;;;;13.91;48.29;95749.06;6249810;22;20157;-81
2023/05/28 01:07:52;;;;;;;6.27;3.70;;;;;;;13.82;48.89;95756.91;6274336;22;20231;-80
2023/05/28 01:10:17;;;;;;;8.83;4.40;;;;;;;13.76;49.30;95760.16;6248876;22;20157;-81
2023/05/28 01:12:43;;;;;;;6.83;3.97;;;;;;;13.66;50.31;95751.66;6249046;22;20202;-81
2023/05/28 01:15:09;;;;;;;11.77;4.50;;;;;;;13.59;50.79;95754.09;6249422;22;20241;-81
2023/05/28 01:17:35;;;;;;;7.87;4.50;;;;;;;13.53;51.39;95751.31;6248303;22;20156;-81
2023/05/28 01:20:10;;;;;;;9.20;4.50;;;;;;;13.44;51.80;95741.84;6279759;22;20538;-81
2023/05/28 01:22:40;;;;;;;8.87;4.23;;;;;;;13.35;52.02;95742.81;6256134;22;20183;-80
2023/05/28 01:25:09;;;;;;;9.00;3.83;;;;;;;13.29;51.97;95742.47;6279062;22;20641;-81
2023/05/28 01:27:38;;;;;;;7.13;4.40;;;;;;;13.22;52.28;95738.84;6253795;22;20598;-80
2023/05/28 01:30:07;;;;;;;9.53;4.67;;;;;;;13.21;52.21;95742.44;6280083;22;20504;-79
2023/05/28 01:32:32;;;;;;;12.07;4.20;;;;;;;13.20;51.89;95734.78;6254687;22;20172;-81
2023/05/28 01:34:57;;;;;;;13.93;4.30;;;;;;;13.16;52.07;95736.84;6279546;22;20460;-81
2023/05/28 01:37:24;;;;;;;9.30;4.17;;;;;;;13.11;52.57;95735.69;6253368;22;20499;-81
2023/05/28 01:39:51;;;;;;;8.40;4.30;;;;;;;13.07;52.89;95729.97;6280520;22;20148;-81
2023/05/28 01:42:16;;;;;;;5.93;3.80;;;;;;;13.02;53.13;95732.25;6279987;22;20553;-80
2023/05/28 01:44:42;;;;;;;11.17;4.43;;;;;;;13.02;53.00;95730.47;6254270;22;20238;-81
2023/05/28 01:47:09;;;;;;;8.03;4.50;;;;;;;12.99;53.07;95727.38;6253721;22;20238;-81
2023/05/28 01:49:36;;;;;;;9.20;4.27;;;;;;;13.03;52.83;95734.69;6279906;22;20170;-81
2023/05/28 01:52:03;;;;;;;7.97;4.40;;;;;;;13.01;53.16;95728.00;6254277;22;20262;-81
2023/05/28 01:54:28;;;;;;;8.97;4.20;;;;;;;12.99;52.89;95729.97;6279859;22;20179;-81
2023/05/28 01:56:53;;;;;;;7.57;4.13;;;;;;;12.95;53.14;95728.63;6306506;22;20159;-81
2023/05/28 01:59:18;;;;;;;9.20;4.40;;;;;;;12.98;53.21;95717.88;6279287;22;20460;-80
2023/05/28 02:01:44;;;;;;;8.90;4.13;;;;;;;12.96;52.70;95720.66;6279509;22;20182;-81
2023/05/28 02:04:09;;;;;;;11.47;4.10;;;;;;;12.98;52.54;95718.69;6279212;22;20175;-81
2023/05/28 02:06:34;;;;;;;7.97;4.33;;;;;;;12.96;52.44;95722.44;6278865;22;20182;-79
2023/05/28 02:09:00;;;;;;;9.40;4.10;;;;;;;13.01;52.74;95717.59;6253836;22;20152;-81
2023/05/28 02:11:25;;;;;;;9.77;4.40;;;;;;;13.00;52.57;95718.56;6254000;22;20623;-81
2023/05/28 02:13:52;;;;;;;10.17;4.20;;;;;;;12.93;52.64;95717.56;6253993;22;20177;-80
2023/05/28 02:16:17;;;;;;;8.60;4.50;;;;;;;12.92;52.48;95713.31;6253022;22;20239;-80
2023/05/28 02:18:47;;;;;;;10.77;4.57;;;;;;;12.88;52.82;95718.03;6253443;22;20631;-81
2023/05/28 02:21:13;;;;;;;7.73;4.10;;;;;;;12.86;52.09;95716.56;6253737;22;20156;-80
2023/05/28 02:23:42;;;;;;;10.13;4.40;;;;;;;12.99;51.71;95709.13;6279207;22;20179;-81
2023/05/28 02:26:07;;;;;;;11.13;4.43;;;;;;;12.95;51.61;95708.59;6251260;22;20606;-81
2023/05/28 02:28:32;;;;;;;8.60;4.60;;;;;;;13.02;51.24;95711.41;6279634;22;20156;-80
2023/05/28 02:30:58;;;;;;;7.27;4.30;;;;;;;13.10;50.67;95706.22;6253865;22;20167;-79
2023/05/28 02:33:23;;;;;;;7.67;4.87;;;;;;;13.12;50.42;95704.25;6279337;22;20144;-80
2023/05/28 02:35:48;;;;;;;9.93;4.60;;;;;;;13.09;50.44;95691.53;6254116;22;20162;-80
2023/05/28 02:38:14;;;;;;;8.90;4.23;;;;;;;13.07;50.58;95701.28;6253785;22;20156;-82
2023/05/28 02:40:39;;;;;;;7.87;4.63;;;;;;;13.10;50.21;95697.56;6253392;22;20183;-79
2023/05/28 02:43:04;;;;;;;10.20;4.80;;;;;;;13.18;50.08;95693.19;6253460;22;20190;-80
2023/05/28 02:45:29;;;;;;;9.20;4.63;;;;;;;13.16;49.65;95694.31;6278994;22;20162;-80
2023/05/28 02:47:55;;;;;;;12.97;4.40;;;;;;;13.19;49.74;95697.47;6278460;22;20590;-80
2023/05/28 02:50:20;;;;;;;8.13;4.47;;;;;;;13.19;49.48;95701.84;6278756;22;20167;-80
2023/05/28 02:52:45;;;;;;;10.17;4.87;;;;;;;13.15;49.45;95701.31;6278616;22;20176;-78
2023/05/28 02:55:11;;;;;;;8.03;4.37;;;;;;;13.18;49.47;95703.63;6252995;22;20156;-78
2023/05/28 02:57:36;;;;;;;12.97;4.60;;;;;;;13.11;49.81;95707.84;6252808;22;20461;-78
2023/05/28 03:00:01;;;;;;;7.77;3.90;;;;;;;13.12;49.63;95709.47;6253740;22;20545;-80
2023/05/28 03:02:27;;;;;;;9.73;4.27;;;;;;;13.02;49.69;95703.56;6255276;22;20669;-81
2023/05/28 03:04:53;;;;;;;10.20;4.20;;;;;;;12.99;49.92;95714.34;6280858;22;20662;-80
2023/05/28 03:07:18;;;;;;;9.10;4.57;;;;;;;12.88;50.67;95714.59;6254797;22;20198;-81
2023/05/28 03:09:43;;;;;;;7.03;4.33;;;;;;;12.79;50.71;95715.53;6280457;22;20156;-80
2023/05/28 03:12:08;;;;;;;7.40;4.13;;;;;;;12.69;51.48;95716.47;6255317;22;20180;-80
2023/05/28 03:14:34;;;;;;;8.50;4.43;;;;;;;12.62;51.75;95715.47;6280372;22;20162;-79
2023/05/28 03:16:59;;;;;;;7.60;4.43;;;;;;;12.58;51.33;95716.75;6279535;22;20152;-81
2023/05/28 03:19:25;;;;;;;9.73;4.67;;;;;;;12.58;51.14;95713.34;6249574;22;20169;-81
2023/05/28 03:21:50;;;;;;;7.40;4.20;;;;;;;12.54;51.53;95717.22;6275438;22;20175;-79
2023/05/28 03:24:15;;;;;;;8.80;4.57;;;;;;;12.52;51.27;95717.38;6275213;22;20319;-81
2023/05/28 03:26:40;;;;;;;9.10;4.47;;;;;;;12.49;51.47;95725.50;6274700;22;20188;-80
2023/05/28 03:29:06;;;;;;;10.93;4.30;;;;;;;12.47;52.09;95719.66;6249970;22;20247;-80
2023/05/28 03:31:43;;;;;;;10.27;4.40;;;;;;;12.38;52.67;95715.38;6249864;22;20175;-80
2023/05/28 03:34:08;;;;;;;6.97;3.97;;;;;;;12.38;52.72;95717.97;6277045;22;20143;-80
2023/05/28 03:36:33;;;;;;;8.43;4.90;;;;;;;12.36;53.34;95712.06;6248798;22;20236;-80
2023/05/28 03:38:59;;;;;;;7.70;4.63;;;;;;;12.39;53.21;95715.22;6276781;22;20459;-79
2023/05/28 03:41:25;;;;;;;8.73;4.70;;;;;;;12.33;53.89;95721.03;6274938;22;20184;-79
2023/05/28 03:43:51;;;;;;;9.93;4.43;;;;;;;12.38;53.48;95715.38;6276547;22;20180;-80
2023/05/28 03:46:16;;;;;;;9.07;4.43;;;;;;;12.45;53.29;95711.16;6248622;22;20494;-80
2023/05/28 03:48:41;;;;;;;8.53;4.70;;;;;;;12.43;53.54;95716.50;6275397;22;20159;-79
2023/05/28 03:51:07;;;;;;;9.63;4.63;;;;;;;12.54;53.33;95710.22;6249610;22;20157;-79
2023/05/28 03:53:32;;;;;;;11.70;4.70;;;;;;;12.63;52.83;95717.13;6274796;22;20155;-79
2023/05/28 03:55:58;;;;;;;9.40;5.03;;;;;;;12.98;52.31;95710.88;6248622;22;20708;-79
2023/05/28 03:58:23;;;;;;;7.67;4.47;;;;;;;13.67;50.40;95708.09;6275054;22;20153;-79
2023/05/28 04:00:48;;;;;;;6.47;4.60;;;;;;;14.21;48.35;95713.63;6249820;22;20152;-80
2023/05/28 04:03:14;;;;;;;10.63;4.27;;;;;;;14.66;47.34;95711.25;6276638;22;20811;-78
2023/05/28 04:05:39;;;;;;;8.83;3.97;;;;;;;15.40;44.50;95706.50;6249682;22;20167;-79
2023/05/28 04:08:04;;;;;;;8.23;4.23;;;;;;;15.91;42.80;95706.81;6248632;22;20161;-79
2023/05/28 04:10:30;;;;;;;9.90;4.27;;;;;;;16.22;42.26;95711.94;6248875;22;20496;-80
2023/05/28 04:12:56;;;;;;;10.15;4.30;;;;;;;16.97;40.22;95716.25;6248644;22;20165;-79
2023/05/28 04:15:21;;;;;;;10.00;4.65;;;;;;;16.93;39.34;95721.03;6249384;22;20160;-79
2023/05/28 04:17:46;;;;;;;8.70;4.85;;;;;;;16.98;39.39;95721.31;6248405;22;20282;-80
2023/05/28 04:20:12;;;;;;;6.65;4.25;;;;;;;16.00;40.96;95718.03;6254024;22;20182;-78
2023/05/28 04:22:37;;;;;;;10.10;4.55;;;;;;;15.82;42.11;95721.78;6253838;22;20184;-80
2023/05/28 04:25:03;;;;;;;6.53;4.25;;;;;;;15.97;41.61;95719.19;6252884;22;20506;-79
2023/05/28 04:27:28;;;;;;;12.45;4.82;;;;;;;16.47;40.92;95720.38;6306745;22;20179;-79
2023/05/28 04:29:54;;;;;;;7.25;4.38;;;;;;;17.47;39.31;95720.63;6254481;22;20170;-78
2023/05/28 04:32:20;;;;;;;8.65;4.20;;;;;;;18.57;37.63;95729.91;6280255;22;20251;-78
2023/05/28 04:34:45;;;;;;;7.18;4.20;;;;;;;19.10;35.79;95719.69;6279918;22;20180;-79
2023/05/28 04:37:10;;;;;;;7.68;4.00;;;;;;;19.26;35.66;95716.72;6253200;22;20166;-78
2023/05/28 04:39:37;;;;;;;8.63;4.50;;;;;;;20.29;33.90;95726.03;6280071;22;20148;-78
2023/05/28 04:42:03;;;;;;;9.05;4.80;;;;;;;20.70;33.21;95726.84;6280391;22;20171;-78
2023/05/28 04:44:30;;;;;;;9.55;4.63;;;;;;;21.54;32.69;95728.59;6253841;22;20214;-78
2023/05/28 04:46:58;;;;;;;8.02;4.60;;;;;;;21.06;32.70;95735.06;6253604;22;20181;-78
2023/05/28 04:49:24;;;;;;;9.35;4.38;;;;;;;21.32;32.44;95736.03;6255436;22;20160;-79
2023/05/28 04:51:49;;;;;;;7.90;4.05;;;;;;;22.62;31.13;95734.56;6279552;22;20203;-79
2023/05/28 04:54:15;;;;;;;11.20;4.50;;;;;;;22.37;31.07;95741.69;6254341;22;20156;-79
2023/05/28 04:56:40;;;;;;;7.18;4.18;;;;;;;23.17;30.07;95737.28;6253220;22;20152;-79
2023/05/28 04:59:09;;;;;;;7.47;4.43;;;;;;;23.42;29.04;95745.94;6280023;22;20148;-78
2023/05/28 05:01:34;;;;;;;12.00;5.10;;;;;;;23.36;29.33;95744.16;6280412;22;20184;-79
2023/05/28 05:04:00;;;;;;;8.80;4.32;;;;;;;23.74;28.56;95748.41;6254044;22;20320;-79
2023/05/28 05:06:25;;;;;;;6.78;4.15;;;;;;;24.39;27.50;95737.88;6253511;22;20156;-79
2023/05/28 05:08:50;;;;;;;8.93;4.88;;;;;;;24.91;26.96;95740.63;6279527;22;20817;-79
2023/05/28 05:11:16;;;;;;;8.88;4.90;;;;;;;24.65;27.43;95736.63;6307057;22;20179;-79
2023/05/28 05:13:41;;;;;;;7.57;4.30;;;;;;;24.29;27.67;95737.59;6306986;22;20174;-79
2023/05/28 05:16:06;;;;;;;8.40;4.03;;;;;;;23.81;27.96;95738.50;6278953;22;20152;-79
2023/05/28 05:18:32;;;;;;;6.10;4.30;;;;;;;24.67;28.38;95739.03;6279516;22;20148;-79
2023/05/28 05:20:57;;;;;;;6.65;4.80;;;;;;;26.35;25.58;95742.38;6274344;22;20169;-78
2023/05/28 05:23:23;;;;;;;5.35;4.00;;;;;;;25.70;25.21;95744.44;6248762;22;20185;-79
2023/05/28 05:25:48;;;;;;;8.32;4.80;;;;;;;25.80;25.83;95745.69;6247533;22;20482;-79
2023/05/28 05:28:13;;;;;;;8.73;4.25;;;;;;;25.41;26.58;95746.25;6274279;22;20168;-79
2023/05/28 05:30:39;;;;;;;7.72;4.70;;;;;;;25.01;27.42;95751.50;6248413;22;20152;-78
2023/05/28 05:33:04;;;;;;;8.65;4.35;;;;;;;25.36;26.22;95745.34;6273893;22;20411;-79
2023/05/28 05:35:29;;;;;;;6.75;4.32;;;;;;;25.77;25.66;95746.16;6275459;22;20855;-78
2023/05/28 05:37:55;;;;;;;7.88;4.00;;;;;;;26.59;24.70;95748.34;6273602;22;20464;-78
2023/05/28 05:40:20;;;;;;;8.50;4.20;;;;;;;27.01;24.18;95744.19;6274702;22;20207;-78
2023/05/28 05:42:45;;;;;;;7.40;4.38;;;;;;;26.83;24.62;95736.47;6273747;22;20198;-79
2023/05/28 05:45:11;;;;;;;7.65;4.57;;;;;;;25.90;25.76;95737.88;6248325;22;20157;-79
2023/05/28 05:47:37;;;;;;;7.22;4.15;;;;;;;26.07;24.98;95744.06;6273610;22;20156;-78
2023/05/28 05:50:03;;;;;;;5.78;3.78;;;;;;;27.45;23.34;95746.09;6273801;22;20503;-79
2023/05/28 05:52:28;;;;;;;6.30;3.80;;;;;;;26.58;25.15;95738.75;6273881;22;20187;-78
2023/05/28 05:54:54;;;;;;;5.95;4.40;;;;;;;27.01;24.01;95741.50;6248708;22;20167;-78
2023/05/28 05:57:19;;;;;;;6.68;3.72;;;;;;;27.33;23.31;95751.56;6247539;22;20153;-79
2023/05/28 05:59:44;;;;;;;7.22;4.35;;;;;;;27.97;22.02;95745.63;6248909;22;20164;-79
2023/05/28 06:02:10;;;;;;;7.80;4.57;;;;;;;28.62;22.22;95740.06;6247898;22;20638;-78
2023/05/28 06:04:35;;;;;;;7.82;4.10;;;;;;;28.71;22.02;95751.09;6248030;22;20180;-79
2023/05/28 06:07:04;;;;;;;7.15;3.88;;;;;;;28.53;22.02;95752.28;6247184;22;20156;-78
2023/05/28 06:09:31;;;;;;;6.38;4.13;;;;;;;29.44;21.30;95754.75;6249001;22;20247;-79
2023/05/28 06:11:56;;;;;;;7.18;4.28;;;;;;;31.04;19.86;95757.41;6273391;22;20176;-79
2023/05/28 06:14:22;;;;;;;8.75;4.32;;;;;;;29.42;21.05;95751.53;6248203;22;20246;-79
2023/05/28 06:16:47;;;;;;;7.43;4.55;;;;;;;28.61;22.94;95748.34;6274567;22;20148;-79
2023/05/28 06:19:12;;;;;;;7.45;4.07;;;;;;;29.13;21.32;95750.31;6278604;22;20213;-78
2023/05/28 06:21:38;;;;;;;9.05;4.30;;;;;;;28.79;21.79;95748.72;6278742;22;20705;-78
2023/05/28 06:24:03;;;;;;;6.47;4.10;;;;;;;29.87;20.22;95750.09;6306057;22;20193;-78
2023/05/28 06:26:28;;;;;;;8.55;4.18;;;;;;;29.25;20.92;95751.72;6251486;22;20159;-79
2023/05/28 06:28:54;;;;;;;9.30;4.25;;;;;;;29.06;20.31;95748.66;6278385;22;20791;-78
2023/05/28 06:31:19;;;;;;;6.45;3.85;;;;;;;29.06;20.31;95753.19;6278532;22;20179;-78
2023/05/28 06:33:45;;;;;;;6.50;4.07;;;;;;;29.01;20.44;95743.31;6278434;22;20144;-78
2023/05/28 06:36:11;;;;;;;9.13;4.70;;;;;;;28.88;20.97;95746.38;6252031;22;20237;-79
2023/05/28 06:38:36;;;;;;;6.97;4.20;;;;;;;30.83;18.89;95751.25;6253063;22;20205;-79
2023/05/28 06:41:01;;;;;;;9.90;3.88;;;;;;;30.18;19.70;95743.75;6253029;22;20163;-78
2023/05/28 06:43:27;;;;;;;6.10;4.25;;;;;;;29.53;20.17;95755.09;6252979;22;20500;-78
2023/05/28 06:45:52;;;;;;;7.80;4.40;;;;;;;29.00;21.40;95747.03;6277967;22;20147;-78
2023/05/28 06:48:17;;;;;;;8.15;4.93;;;;;;;29.54;20.92;95749.47;6252552;22;20605;-78
2023/05/28 06:50:43;;;;;;;6.88;4.05;;;;;;;28.56;22.01;95749.13;6279071;22;20613;-79
2023/05/28 06:53:08;;;;;;;7.15;4.45;;;;;;;28.53;22.82;95752.28;6278926;22;20179;-79
2023/05/28 06:55:33;;;;;;;7.43;4.40;;;;;;;31.16;20.11;95758.69;6278829;22;20163;-78
2023/05/28 06:57:58;;;;;;;7.72;3.83;;;;;;;30.09;21.06;95756.06;6251950;22;20167;-78
2023/05/28 07:00:24;;;;;;;7.20;4.03;;;;;;;30.47;21.15;95759.28;6278523;22;20148;-79
2023/05/28 07:02:49;;;;;;;7.15;4.50;;;;;;;29.68;22.41;95763.13;6253315;22;20233;-78
2023/05/28 07:05:14;;;;;;;7.53;4.25;;;;;;;29.43;22.46;95755.81;6278555;22;20665;-79
2023/05/28 07:07:40;;;;;;;11.23;4.65;;;;;;;29.72;21.70;95758.09;6252338;22;20162;-78
2023/05/28 07:10:06;;;;;;;8.23;4.53;;;;;;;29.67;21.96;95758.06;6278505;22;20629;-79
2023/05/28 07:12:31;;;;;;;7.38;4.38;;;;;;;28.98;22.56;95761.75;6278772;22;20182;-79
2023/05/28 07:14:56;;;;;;;6.13;4.22;;;;;;;28.53;23.13;95764.84;6278657;22;20490;-78
2023/05/28 07:17:22;;;;;;;8.25;4.03;;;;;;;28.14;23.56;95762.34;6252304;22;20167;-78
2023/05/28 07:19:48;;;;;;;6.47;4.53;;;;;;;27.07;26.01;95769.09;6278439;22;20501;-78
2023/05/28 07:22:13;;;;;;;7.80;3.67;;;;;;;26.92;26.29;95766.97;6252664;22;20182;-79
2023/05/28 07:24:38;;;;;;;7.18;4.65;;;;;;;27.33;25.53;95767.56;6251667;22;20180;-77
2023/05/28 07:27:04;;;;;;;7.90;4.30;;;;;;;29.21;22.75;95765.88;6277584;22;20163;-78
2023/05/28 07:29:29;;;;;;;6.60;4.13;;;;;;;28.19;23.93;95765.06;6278314;22;20186;-79
2023/05/28 07:31:55;;;;;;;9.05;4.43;;;;;;;28.82;23.75;95768.81;6278154;22;20171;-79
2023/05/28 07:34:20;;;;;;;5.25;4.05;;;;;;;28.83;24.10;95770.44;6252801;22;20621;-79
2023/05/28 07:36:46;;;;;;;7.55;4.57;;;;;;;28.59;23.53;95763.81;6252076;22;20206;-80
2023/05/28 07:39:11;;;;;;;5.93;3.83;;;;;;;28.40;23.86;95772.22;6252466;22;20213;-79
2023/05/28 07:41:36;;;;;;;7.57;3.92;;;;;;;27.40;25.22;95781.53;6252391;22;20176;-79
2023/05/28 07:44:02;;;;;;;7.18;4.68;;;;;;;27.93;25.11;95786.19;6253073;22;20651;-79
2023/05/28 07:46:27;;;;;;;8.45;4.28;;;;;;;27.00;26.10;95774.56;6278286;22;20489;-78
2023/05/28 07:48:52;;;;;;;6.93;4.30;;;;;;;27.85;25.63;95781.28;6279929;22;20159;-78
2023/05/28 07:51:18;;;;;;;6.68;3.95;;;;;;;27.99;24.89;95781.69;6280243;22;20623;-78
2023/05/28 07:53:43;;;;;;;7.03;4.03;;;;;;;28.02;25.16;95780.41;6254980;22;20589;-79
2023/05/28 07:56:09;;;;;;;8.35;4.40;;;;;;;26.70;26.77;95777.59;6254165;22;20158;-78
2023/05/28 07:58:35;;;;;;;8.45;4.28;;;;;;;27.27;25.82;95772.00;6254936;22;20516;-79
2023/05/28 08:01:00;;;;;;;6.93;4.30;;;;;;;25.62;27.66;95774.06;6255039;22;20162;-78
2023/05/28 08:03:27;;;;;;;7.45;3.97;;;;;;;26.25;26.12;95773.09;6254490;22;20245;-79
2023/05/28 08:05:53;;;;;;;10.90;4.57;;;;;;;25.72;28.02;95770.00;6253939;22;20152;-79
2023/05/28 08:08:18;;;;;;;9.63;4.15;;;;;;;26.12;28.40;95768.06;6280273;22;20152;-79
2023/05/28 08:10:43;;;;;;;10.35;4.38;;;;;;;25.25;27.68;95772.75;6279861;22;20151;-79
2023/05/28 08:13:09;;;;;;;6.80;4.15;;;;;;;26.39;27.32;95772.81;6280231;22;20174;-79
2023/05/28 08:15:35;;;;;;;9.15;4.90;;;;;;;25.53;28.32;95764.00;6307805;22;20775;-79
2023/05/28 08:18:01;;;;;;;8.60;4.40;;;;;;;25.89;27.83;95768.19;6254047;22;20606;-79
2023/05/28 08:20:29;;;;;;;8.02;4.40;;;;;;;24.81;28.86;95759.81;6280659;22;20186;-79
2023/05/28 08:22:54;;;;;;;7.90;4.28;;;;;;;25.18;29.71;95762.25;6255641;22;20663;-79
2023/05/28 08:25:19;;;;;;;9.52;4.43;;;;;;;25.47;29.25;95756.97;6253789;22;20160;-78
2023/05/28 08:27:44;;;;;;;9.05;4.40;;;;;;;24.72;29.53;95763.03;6254074;22;20163;-79
2023/05/28 08:30:10;;;;;;;7.90;4.50;;;;;;;24.39;29.65;95760.97;6280649;22;20156;-80
2023/05/28 08:32:35;;;;;;;8.77;4.57;;;;;;;24.77;29.30;95758.66;6279985;22;20221;-78
2023/05/28 08:35:01;;;;;;;7.90;4.05;;;;;;;23.69;31.44;95758.88;6279757;22;20152;-80
2023/05/28 08:37:26;;;;;;;7.05;4.72;;;;;;;23.70;31.39;95756.00;6253819;22;20160;-80
2023/05/28 08:39:51;;;;;;;7.55;4.35;;;;;;;23.85;32.38;95752.94;6294516;22;20159;-79
2023/05/28 08:42:17;;;;;;;9.27;4.28;;;;;;;23.97;32.24;95750.34;6281558;22;20187;-79
2023/05/28 08:44:42;;;;;;;7.93;4.47;;;;;;;23.90;31.69;95750.41;6282004;22;20213;-78
2023/05/28 08:47:07;;;;;;;7.35;4.25;;;;;;;24.08;30.76;95744.25;6307589;22;20148;-79
2023/05/28 08:49:42;;;;;;;11.32;4.45;;;;;;;23.90;31.36;95741.66;6281922;22;20147;-79
2023/05/28 08:52:08;;;;;;;8.38;4.40;;;;;;;23.91;33.10;95732.66;6281819;22;20170;-79
2023/05/28 08:54:34;;;;;;;7.32;4.30;;;;;;;24.30;31.07;95742.69;6308280;22;20148;-79
2023/05/28 08:57:00;;;;;;;7.63;4.50;;;;;;;23.62;31.63;95737.75;6307359;22;20177;-78
2023/05/28 08:59:27;;;;;;;7.03;4.22;;;;;;;24.16;31.41;95735.16;6306269;22;20159;-79
2023/05/28 09:01:52;;;;;;;10.02;4.50;;;;;;;24.14;31.96;95738.03;6286738;22;20167;-79
2023/05/28 09:04:18;;;;;;;8.43;4.20;;;;;;;24.65;30.75;95738.44;6283009;22;20190;-80
2023/05/28 09:06:43;;;;;;;6.75;3.95;;;;;;;24.02;30.78;95738.00;6257017;22;20632;-79
2023/05/28 09:09:09;;;;;;;8.45;4.30;;;;;;;23.78;30.82;95738.97;6256178;22;20179;-78
2023/05/28 09:11:35;;;;;;;8.10;4.10;;;;;;;23.93;31.04;95742.00;6282690;22;20168;-80
2023/05/28 09:14:11;;;;;;;9.15;4.90;;;;;;;23.66;30.67;95738.09;6282416;22;20154;-80
2023/05/28 09:16:40;;;;;;;7.07;4.03;;;;;;;23.49;30.39;95735.22;6281148;22;20167;-79
2023/05/28 09:19:06;;;;;;;8.43;4.22;;;;;;;23.05;31.83;95737.19;6281787;22;20164;-79
2023/05/28 09:21:34;;;;;;;9.70;4.63;;;;;;;23.25;30.72;95736.97;6256036;22;20176;-79
2023/05/28 09:24:00;;;;;;;10.07;4.50;;;;;;;23.74;31.70;95730.66;6256760;22;20186;-79
2023/05/28 09:26:31;;;;;;;7.35;4.47;;;;;;;23.93;32.13;95734.03;6280814;22;20175;-79
2023/05/28 09:28:57;;;;;;;9.07;4.10;;;;;;;24.13;32.17;95733.78;6255427;22;20536;-80
2023/05/28 09:31:29;;;;;;;8.15;4.30;;;;;;;24.40;31.72;95722.75;6280582;22;20175;-79
2023/05/28 09:33:55;;;;;;;8.65;4.28;;;;;;;24.93;31.20;95724.47;6255190;22;20174;-79
2023/05/28 09:36:20;;;;;;;6.57;4.38;;;;;;;24.27;33.18;95713.13;6280554;22;20156;-80
2023/05/28 09:38:45;;;;;;;7.63;4.07;;;;;;;23.78;31.37;95722.25;6255042;22;20151;-79
2023/05/28 09:41:24;;;;;;;9.15;4.07;;;;;;;23.99;30.16;95722.53;6280872;22;20612;-79
2023/05/28 09:43:59;;;;;;;8.25;4.50;;;;;;;24.40;29.90;95720.91;6280646;22;20171;-79
2023/05/28 09:46:31;;;;;;;8.63;4.20;;;;;;;24.46;31.27;95727.13;6279895;22;20146;-79
2023/05/28 09:48:57;;;;;;;10.70;4.57;;;;;;;24.58;30.33;95728.78;6256337;22;20559;-80
2023/05/28 09:51:26;;;;;;;9.38;4.40;;;;;;;24.67;30.30;95726.56;6255675;22;20203;-79
2023/05/28 09:53:55;;;;;;;12.05;4.38;;;;;;;24.41;32.76;95719.06;6280515;22;20152;-79
2023/05/28 09:56:21;;;;;;;7.90;4.15;;;;;;;24.79;29.23;95724.72;6253690;22;20213;-79
2023/05/28 09:58:50;;;;;;;8.38;4.32;;;;;;;24.74;31.07;95729.94;6254334;22;20201;-78
2023/05/28 10:01:17;;;;;;;9.93;4.95;;;;;;;24.55;30.70;95715.13;6280471;22;20154;-79
2023/05/28 10:03:44;;;;;;;8.55;4.20;;;;;;;24.47;31.07;95724.28;6254196;22;20303;-78
2023/05/28 10:06:28;;;;;;;9.05;4.07;;;;;;;24.67;30.48;95723.91;6253635;22;20195;-79
2023/05/28 10:08:54;;;;;;;6.50;4.13;;;;;;;24.44;30.95;95727.38;6280356;22;20586;-78
2023/05/28 10:11:22;;;;;;;6.03;3.85;;;;;;;24.29;30.65;95726.97;6254699;22;20188;-79
2023/05/28 10:13:48;;;;;;;9.55;4.68;;;;;;;24.40;31.65;95728.06;6279751;22;20156;-79
2023/05/28 10:16:13;;;;;;;9.05;4.63;;;;;;;23.71;31.51;95736.41;6253358;22;20845;-78
2023/05/28 10:18:40;;;;;;;7.45;4.35;;;;;;;22.81;31.55;95741.50;6254238;22;20155;-79
2023/05/28 10:21:07;;;;;;;9.63;4.30;;;;;;;23.29;31.01;95724.88;6279375;22;20140;-79
2023/05/28 10:23:32;;;;;;;9.20;4.70;;;;;;;23.34;31.85;95730.34;6254261;22;20184;-79
2023/05/28 10:25:58;;;;;;;7.03;4.80;;;;;;;23.30;31.81;95738.94;6278320;22;20156;-80
2023/05/28 10:28:23;;;;;;;7.95;4.70;;;;;;;22.77;31.46;95734.19;6280247;22;20152;-79
2023/05/28 10:31:04;;;;;;;7.97;4.18;;;;;;;22.91;31.72;95727.78;6253920;22;20193;-79
2023/05/28 10:33:30;;;;;;;10.65;4.47;;;;;;;22.99;32.01;95724.03;6254457;22;20151;-80
2023/05/28 10:35:58;;;;;;;8.40;5.07;;;;;;;23.48;32.01;95732.81;6253540;22;20196;-80
2023/05/28 10:38:24;;;;;;;8.57;4.20;;;;;;;23.81;32.97;95730.56;6254695;22;20623;-79
2023/05/28 10:40:49;;;;;;;7.55;4.20;;;;;;;23.73;30.97;95730.88;6279392;22;20155;-79
2023/05/28 10:43:39;;;;;;;6.75;3.80;;;;;;;24.09;30.03;95732.59;6279547;22;20263;-80
2023/05/28 10:46:10;;;;;;;9.40;4.50;;;;;;;23.94;29.40;95730.38;6306355;22;20158;-80
2023/05/28 10:48:39;;;;;;;9.27;4.38;;;;;;;23.58;30.96;95727.78;6279457;22;20159;-80
2023/05/28 10:51:04;;;;;;;10.40;4.40;;;;;;;24.15;31.39;95726.38;6279764;22;20152;-80
2023/05/28 10:53:30;;;;;;;10.05;4.75;;;;;;;24.16;30.17;95728.00;6253879;22;20163;-80
2023/05/28 10:55:56;;;;;;;9.30;4.40;;;;;;;24.30;32.09;95723.31;6253199;22;20160;-80
2023/05/28 10:58:25;;;;;;;8.43;4.60;;;;;;;23.64;30.14;95724.28;6253832;22;20242;-80
2023/05/28 11:00:51;;;;;;;9.07;4.40;;;;;;;24.20;30.68;95717.72;6254328;22;20238;-80
2023/05/28 11:03:16;;;;;;;13.18;5.30;;;;;;;23.52;32.14;95732.16;6279603;22;20202;-81
2023/05/28 11:05:42;;;;;;;8.98;4.72;;;;;;;23.59;31.98;95727.63;6254266;22;20158;-80
2023/05/28 11:08:08;;;;;;;7.53;4.90;;;;;;;24.41;31.52;95719.88;6253937;22;20162;-80
2023/05/28 11:10:33;;;;;;;9.43;4.75;;;;;;;24.77;30.09;95731.31;6254262;22;20156;-80
2023/05/28 11:12:59;;;;;;;8.45;4.35;;;;;;;24.44;31.17;95723.91;6254192;22;20172;-80
2023/05/28 11:15:24;;;;;;;10.32;4.40;;;;;;;24.62;29.25;95730.94;6254095;22;20164;-79
2023/05/28 11:17:49;;;;;;;7.05;4.70;;;;;;;24.02;29.99;95721.25;6252718;22;20170;-80
2023/05/28 11:20:25;;;;;;;9.52;4.22;;;;;;;23.85;30.15;95715.81;6249011;22;20168;-80
2023/05/28 11:22:51;;;;;;;6.70;4.50;;;;;;;24.67;30.26;95710.66;6276368;22;20184;-80
2023/05/28 11:25:16;;;;;;;8.90;5.10;;;;;;;24.85;29.53;95723.00;6249992;22;20157;-79
2023/05/28 11:27:42;;;;;;;10.73;5.28;;;;;;;24.00;31.93;95721.50;6250682;22;20184;-81